createdAt,value
2019-05-05T00:02:26.753Z,100876.76
2019-05-05T00:05:04.806Z,100874.09
2019-05-05T00:07:35.731Z,100874.75
2019-05-05T00:10:07.476Z,100879.89
2019-05-05T00:12:55.059Z,100879.37
2019-05-05T00:16:00.117Z,100880.01
2019-05-05T00:18:30.873Z,100884.03
2019-05-05T00:21:00.843Z,100885.80
2019-05-05T00:23:30.672Z,100879.03
2019-05-05T00:26:00.571Z,100885.20
2019-05-05T00:28:30.421Z,100888.19
2019-05-05T00:31:00.313Z,100881.55
2019-05-05T00:33:30.202Z,100886.98
2019-05-05T00:36:00.654Z,100898.02
2019-05-05T00:38:30.547Z,100888.48
2019-05-05T00:41:01.649Z,100888.48
2019-05-05T00:43:31.576Z,100894.02
2019-05-05T00:46:07.430Z,100900.92
2019-05-05T00:48:44.502Z,100908.16
2019-05-05T00:51:15.106Z,100907.56
2019-05-05T00:53:45.512Z,100910.02
2019-05-05T00:56:15.864Z,100908.59
2019-05-05T00:58:51.178Z,100911.58
2019-05-05T01:01:44.890Z,100914.21
2019-05-05T01:04:17.202Z,100917.94
2019-05-05T01:06:47.008Z,100908.48
2019-05-05T01:09:19.742Z,100916.10
2019-05-05T01:11:51.060Z,100912.22
2019-05-05T01:14:20.847Z,100916.66
2019-05-05T01:16:50.757Z,100914.92
2019-05-05T01:19:20.572Z,100912.94
2019-05-05T01:21:50.678Z,100911.69
2019-05-05T01:24:20.993Z,100916.81
2019-05-05T01:26:50.826Z,100915.73
2019-05-05T01:29:20.776Z,100919.83
2019-05-05T01:31:51.190Z,100915.69
2019-05-05T01:34:29.305Z,100919.76
2019-05-05T01:37:04.947Z,100921.37
2019-05-05T01:39:45.104Z,100921.75
2019-05-05T01:42:15.269Z,100920.66
2019-05-05T01:44:45.252Z,100921.27
2019-05-05T01:47:15.201Z,100921.27
2019-05-05T01:49:45.595Z,100925.15
2019-05-05T01:52:15.588Z,100925.37
2019-05-05T01:54:45.618Z,100924.28
2019-05-05T01:57:15.943Z,100926.61
2019-05-05T01:59:46.042Z,100927.33
2019-05-05T02:02:16.028Z,100929.97
2019-05-05T02:04:46.388Z,100929.44
2019-05-05T02:07:16.469Z,100929.47
2019-05-05T02:09:46.408Z,100935.69
2019-05-05T02:12:17.419Z,100930.72
2019-05-05T02:14:47.386Z,100931.96
2019-05-05T02:17:17.244Z,100936.17
2019-05-05T02:19:47.201Z,100932.83
2019-05-05T02:22:17.096Z,100939.91
2019-05-05T02:24:47.579Z,100942.80
2019-05-05T02:27:19.661Z,100936.06
2019-05-05T02:30:00.043Z,100943.18
2019-05-05T02:32:39.821Z,100947.09
2019-05-05T02:35:16.311Z,100947.51
2019-05-05T02:37:46.091Z,100948.72
2019-05-05T02:40:18.040Z,100942.95
2019-05-05T02:42:48.926Z,100954.14
2019-05-05T02:45:48.211Z,100949.81
2019-05-05T02:48:20.334Z,100954.28
2019-05-05T02:51:01.713Z,100949.95
2019-05-05T02:53:43.979Z,100960.84
2019-05-05T02:56:20.952Z,100960.02
2019-05-05T02:58:55.268Z,100968.89
2019-05-05T03:01:34.233Z,100965.66
2019-05-05T03:04:04.690Z,100959.94
2019-05-05T03:06:35.609Z,100964.38
2019-05-05T03:09:07.057Z,100970.06
2019-05-05T03:11:37.950Z,100964.04
2019-05-05T03:14:11.230Z,100961.59
2019-05-05T03:16:43.527Z,100963.89
2019-05-05T03:19:14.232Z,100971.12
2019-05-05T03:21:44.903Z,100966.11
2019-05-05T03:24:15.636Z,100972.13
2019-05-05T03:26:45.600Z,100972.28
2019-05-05T03:29:19.580Z,100980.97
2019-05-05T03:31:50.754Z,100978.34
2019-05-05T03:34:23.829Z,100982.78
2019-05-05T03:36:54.140Z,100990.38
2019-05-05T03:39:26.446Z,100980.78
2019-05-05T03:42:07.739Z,100983.46
2019-05-05T03:44:44.055Z,100985.56
2019-05-05T03:47:14.488Z,100959.42
2019-05-05T03:49:44.648Z,100993.13
2019-05-05T03:52:15.353Z,100984.72
2019-05-05T03:54:46.923Z,100988.59
2019-05-05T03:57:17.160Z,100988.78
2019-05-05T03:59:48.487Z,100992.22
2019-05-05T04:02:34.428Z,100996.89
2019-05-05T04:05:14.593Z,100998.94
2019-05-05T04:07:44.668Z,101005.86
2019-05-05T04:10:14.961Z,101009.14
2019-05-05T04:12:45.715Z,101011.25
2019-05-05T04:15:15.600Z,101013.55
2019-05-05T04:17:54.538Z,101017.51
2019-05-05T04:20:36.579Z,101025.49
2019-05-05T04:23:06.974Z,101026.73
2019-05-05T04:25:36.924Z,101032.27
2019-05-05T04:28:06.958Z,101032.12
2019-05-05T04:30:56.417Z,101034.31
2019-05-05T04:33:26.212Z,101035.55
2019-05-05T04:35:56.418Z,101041.62
2019-05-05T04:38:26.387Z,101037.41
2019-05-05T04:40:56.228Z,101041.55
2019-05-05T04:43:26.317Z,101045.33
2019-05-05T04:45:56.162Z,101047.17
2019-05-05T04:48:48.121Z,101044.88
2019-05-05T04:51:22.080Z,101044.42
2019-05-05T04:54:27.348Z,101048.58
2019-05-05T04:56:57.836Z,101050.11
2019-05-05T04:59:27.615Z,101048.30
2019-05-05T05:02:00.973Z,101048.22
2019-05-05T05:04:53.571Z,101047.95
2019-05-05T05:07:25.042Z,101052.83
2019-05-05T05:09:54.974Z,101060.36
2019-05-05T05:12:24.817Z,101054.95
2019-05-05T05:14:54.793Z,101061.17
2019-05-05T05:17:34.310Z,101046.19
2019-05-05T05:20:04.491Z,101046.55
2019-05-05T05:22:34.380Z,101045.45
2019-05-05T05:25:04.961Z,101042.52
2019-05-05T05:27:35.260Z,101037.55
2019-05-05T05:30:05.517Z,101058.25
2019-05-05T05:32:35.332Z,101062.64
2019-05-05T05:35:05.587Z,101062.88
2019-05-05T05:37:35.755Z,101063.57
2019-05-05T05:40:14.578Z,101063.93
2019-05-05T05:42:44.444Z,101070.00
2019-05-05T05:45:23.787Z,101076.30
2019-05-05T05:48:14.445Z,101074.33
2019-05-05T05:50:53.724Z,101082.58
2019-05-05T05:53:24.409Z,101076.48
2019-05-05T05:55:54.423Z,101092.55
2019-05-05T05:58:24.707Z,101093.34
2019-05-05T06:00:56.444Z,101090.97
2019-05-05T06:03:26.604Z,101095.55
2019-05-05T06:05:56.428Z,101104.36
2019-05-05T06:08:26.668Z,101103.12
2019-05-05T06:10:56.572Z,101108.26
2019-05-05T06:13:26.486Z,101119.05
2019-05-05T06:15:56.274Z,101122.51
2019-05-05T06:18:26.115Z,101118.55
2019-05-05T06:20:56.235Z,101124.05
2019-05-05T06:23:26.098Z,101123.83
2019-05-05T06:25:56.031Z,101124.73
2019-05-05T06:28:25.873Z,101131.53
2019-05-05T06:30:55.691Z,101133.13
2019-05-05T06:33:25.561Z,101127.86
2019-05-05T06:35:56.578Z,101125.55
2019-05-05T06:38:26.514Z,101139.22
2019-05-05T06:41:15.417Z,101138.77
2019-05-05T06:44:11.150Z,101142.08
2019-05-05T06:47:15.268Z,101139.64
2019-05-05T06:49:45.232Z,101144.05
2019-05-05T06:52:16.069Z,101146.52
2019-05-05T06:54:46.298Z,101156.64
2019-05-05T06:57:16.271Z,101159.50
2019-05-05T06:59:46.146Z,101158.86
2019-05-05T07:02:15.998Z,101154.06
2019-05-05T07:04:45.918Z,101161.03
2019-05-05T07:07:15.701Z,101157.11
2019-05-05T07:09:45.496Z,101163.70
2019-05-05T07:12:15.261Z,101157.16
2019-05-05T07:14:45.291Z,101163.80
2019-05-05T07:17:15.068Z,101175.96
2019-05-05T07:19:45.193Z,101174.23
2019-05-05T07:22:17.665Z,101172.43
2019-05-05T07:24:47.708Z,101169.58
2019-05-05T07:27:17.573Z,101172.27
2019-05-05T07:29:47.348Z,101172.62
2019-05-05T07:32:17.290Z,101175.67
2019-05-05T07:35:05.460Z,101179.93
2019-05-05T07:37:35.327Z,101180.46
2019-05-05T07:40:06.187Z,101176.33
2019-05-05T07:42:36.244Z,101174.17
2019-05-05T07:45:19.385Z,101179.83
2019-05-05T07:47:38.535Z,101181.23
2019-05-05T07:50:14.529Z,101186.97
2019-05-05T07:52:40.531Z,101186.97
2019-05-05T07:55:11.038Z,101176.02
2019-05-05T07:57:40.770Z,101171.52
2019-05-05T08:00:11.079Z,101163.23
2019-05-05T08:02:41.027Z,101173.62
2019-05-05T08:05:11.140Z,101167.73
2019-05-05T08:07:41.297Z,101167.35
2019-05-05T08:10:13.685Z,101169.55
2019-05-05T08:12:43.748Z,101171.67
2019-05-05T08:15:15.545Z,101167.04
2019-05-05T08:17:59.755Z,101163.38
2019-05-05T08:20:33.867Z,101165.63
2019-05-05T08:23:05.325Z,101172.61
2019-05-05T08:25:53.996Z,101164.30
2019-05-05T08:28:31.087Z,101161.84
2019-05-05T08:31:14.867Z,101161.28
2019-05-05T08:33:44.760Z,101168.72
2019-05-05T08:36:14.827Z,101166.86
2019-05-05T08:38:44.752Z,101168.56
2019-05-05T08:41:14.559Z,101168.77
2019-05-05T08:43:44.430Z,101171.09
2019-05-05T08:46:14.505Z,101167.56
2019-05-05T08:48:45.328Z,101170.11
2019-05-05T08:51:15.584Z,101161.31
2019-05-05T08:53:48.161Z,101164.14
2019-05-05T08:56:17.477Z,101174.41
2019-05-05T08:58:49.786Z,101175.98
2019-05-05T09:01:18.901Z,101176.31
2019-05-05T09:03:48.817Z,101173.63
2019-05-05T09:06:18.841Z,101170.78
2019-05-05T09:08:48.651Z,101177.83
2019-05-05T09:11:18.867Z,101185.41
2019-05-05T09:13:48.801Z,101182.50
2019-05-05T09:16:18.819Z,101183.96
2019-05-05T09:19:01.392Z,101184.34
2019-05-05T09:21:31.263Z,101184.81
2019-05-05T09:24:17.894Z,101184.40
2019-05-05T09:26:55.315Z,101182.11
2019-05-05T09:29:31.525Z,101178.85
2019-05-05T09:32:03.957Z,101174.48
2019-05-05T09:34:34.632Z,101174.20
2019-05-05T09:37:06.004Z,101176.64
2019-05-05T09:39:36.894Z,101173.31
2019-05-05T09:42:06.878Z,101171.84
2019-05-05T09:44:36.682Z,101170.73
2019-05-05T09:47:06.704Z,101163.22
2019-05-05T09:49:36.595Z,101168.02
2019-05-05T09:52:06.442Z,101173.91
2019-05-05T09:54:36.298Z,101175.03
2019-05-05T09:57:06.568Z,101169.33
2019-05-05T09:59:36.369Z,101168.14
2019-05-05T10:02:06.305Z,101176.45
2019-05-05T10:04:37.277Z,101179.28
2019-05-05T10:07:07.113Z,101165.64
2019-05-05T10:09:37.026Z,101178.81
2019-05-05T10:12:06.825Z,101171.19
2019-05-05T10:14:36.596Z,101175.74
2019-05-05T10:17:06.490Z,101174.96
2019-05-05T10:19:37.143Z,101178.22
2019-05-05T10:22:06.968Z,101177.19
2019-05-05T10:24:55.162Z,101174.89
2019-05-05T10:27:23.861Z,101180.67
2019-05-05T10:29:54.803Z,101188.63
2019-05-05T10:32:25.450Z,101185.78
2019-05-05T10:35:04.417Z,101177.98
2019-05-05T10:37:35.311Z,101178.59
2019-05-05T10:40:07.140Z,101183.50
2019-05-05T10:42:53.948Z,101184.08
2019-05-05T10:45:25.329Z,101193.96
2019-05-05T10:47:55.376Z,101189.70
2019-05-05T10:50:25.273Z,101184.41
2019-05-05T10:52:55.263Z,101179.77
2019-05-05T10:55:25.605Z,101168.91
2019-05-05T10:57:55.842Z,101161.11
2019-05-05T11:00:46.827Z,101175.97
2019-05-05T11:03:17.007Z,101183.20
2019-05-05T11:05:47.200Z,101177.48
2019-05-05T11:08:17.682Z,101175.83
2019-05-05T11:14:23.652Z,101175.91
2019-05-05T11:16:54.613Z,101169.70
2019-05-05T11:19:25.303Z,101169.61
2019-05-05T11:21:55.308Z,101161.82
2019-05-05T11:24:25.331Z,101172.52
2019-05-05T11:26:56.553Z,101176.52
2019-05-05T11:29:27.330Z,101180.58
2019-05-05T11:32:00.598Z,101176.88
2019-05-05T11:34:34.643Z,101169.14
2019-05-05T11:37:17.431Z,101166.39
2019-05-05T11:39:47.220Z,101167.52
2019-05-05T11:42:17.306Z,101168.02
2019-05-05T11:44:47.604Z,101169.44
2019-05-05T11:47:17.581Z,101166.78
2019-05-05T11:49:47.948Z,101173.58
2019-05-05T11:52:17.795Z,101165.99
2019-05-05T11:54:47.645Z,101168.05
2019-05-05T11:57:17.481Z,101164.69
2019-05-05T11:59:47.276Z,101175.36
2019-05-05T12:02:17.606Z,101174.47
2019-05-05T12:04:47.500Z,101176.48
2019-05-05T12:07:17.389Z,101187.80
2019-05-05T12:09:54.751Z,101177.97
2019-05-05T12:12:23.870Z,101174.39
2019-05-05T12:14:54.596Z,101177.23
2019-05-05T12:17:34.738Z,101180.47
2019-05-05T12:20:06.616Z,101180.91
2019-05-05T12:22:36.682Z,101171.84
2019-05-05T12:25:28.650Z,101170.83
2019-05-05T12:28:08.084Z,101174.77
2019-05-05T12:30:38.068Z,101173.64
2019-05-05T12:33:07.955Z,101168.66
2019-05-05T12:35:37.861Z,101171.20
2019-05-05T12:38:07.726Z,101170.55
2019-05-05T12:40:37.678Z,101169.19
2019-05-05T12:43:07.618Z,101166.80
2019-05-05T12:45:39.079Z,101169.45
2019-05-05T12:48:24.306Z,101172.81
2019-05-05T12:50:54.210Z,101177.92
2019-05-05T12:53:24.404Z,101179.49
2019-05-05T12:55:54.669Z,101170.30
2019-05-05T12:58:25.060Z,101184.83
2019-05-05T13:01:05.520Z,101184.77
2019-05-05T13:03:36.549Z,101184.46
2019-05-05T13:06:06.481Z,101174.47
2019-05-05T13:08:36.406Z,101158.84
2019-05-05T13:11:06.345Z,101178.38
2019-05-05T13:13:37.448Z,101169.67
2019-05-05T13:16:07.302Z,101166.20
2019-05-05T13:18:38.277Z,101177.60
2019-05-05T13:21:19.641Z,101177.17
2019-05-05T13:24:07.598Z,101174.00
2019-05-05T13:26:43.192Z,101184.35
2019-05-05T13:29:13.928Z,101177.70
2019-05-05T13:31:44.248Z,101162.24
2019-05-05T13:34:14.412Z,101174.93
2019-05-05T13:36:44.352Z,101175.46
2019-05-05T13:39:14.583Z,101173.81
2019-05-05T13:41:45.015Z,101187.56
2019-05-05T13:44:30.190Z,101186.49
2019-05-05T13:47:00.132Z,101182.61
2019-05-05T13:49:35.322Z,101181.69
2019-05-05T13:52:05.734Z,101184.23
2019-05-05T13:54:35.698Z,101197.77
2019-05-05T13:57:05.718Z,101181.69
2019-05-05T13:59:36.177Z,101183.63
2019-05-05T14:02:06.162Z,101187.17
2019-05-05T14:04:36.751Z,101186.95
2019-05-05T14:07:07.558Z,101194.39
2019-05-05T14:09:37.437Z,101195.73
2019-05-05T14:12:08.454Z,101204.25
2019-05-05T14:14:38.452Z,101210.41
2019-05-05T14:17:08.443Z,101212.13
2019-05-05T14:19:39.123Z,101207.73
2019-05-05T14:22:08.999Z,101213.53
2019-05-05T14:24:44.427Z,101205.78
2019-05-05T14:27:15.465Z,101199.38
2019-05-05T14:29:50.804Z,101209.43
2019-05-05T14:32:25.876Z,101201.58
2019-05-05T14:35:04.010Z,101206.12
2019-05-05T14:37:40.554Z,101198.98
2019-05-05T14:40:10.748Z,101197.86
2019-05-05T14:42:40.658Z,101196.09
2019-05-05T14:45:12.704Z,101197.44
2019-05-05T14:47:46.300Z,101196.77
2019-05-05T14:50:18.098Z,101198.19
2019-05-05T14:52:48.206Z,101196.83
2019-05-05T14:55:18.337Z,101187.13
2019-05-05T14:57:48.470Z,101191.62
2019-05-05T15:00:21.150Z,101181.47
2019-05-05T15:02:51.449Z,101175.56
2019-05-05T15:05:56.025Z,101171.95
2019-05-05T15:08:45.040Z,101175.67
2019-05-05T15:11:31.200Z,101174.29
2019-05-05T15:14:04.281Z,101178.62
2019-05-05T15:16:34.630Z,101173.06
2019-05-05T15:19:05.965Z,101181.93
2019-05-05T15:21:36.999Z,101179.58
2019-05-05T15:24:06.945Z,101180.31
2019-05-05T15:26:49.010Z,101171.48
2019-05-05T15:29:08.541Z,101166.72
2019-05-05T15:31:38.847Z,101176.52
2019-05-05T15:34:09.356Z,101167.02
2019-05-05T15:36:39.504Z,101161.23
2019-05-05T15:39:09.814Z,101168.19
2019-05-05T15:41:41.809Z,101165.75
2019-05-05T15:44:13.505Z,101172.19
2019-05-05T15:46:44.196Z,101178.64
2019-05-05T15:49:14.370Z,101172.02
2019-05-05T15:51:44.442Z,101172.83
2019-05-05T15:54:14.376Z,101176.02
2019-05-05T15:56:44.293Z,101166.52
2019-05-05T15:59:14.381Z,101165.20
2019-05-05T16:01:44.302Z,101167.89
2019-05-05T16:04:14.335Z,101170.22
2019-05-05T16:06:45.295Z,101169.54
2019-05-05T16:09:15.483Z,101169.54
2019-05-05T16:11:46.869Z,101168.73
2019-05-05T16:14:16.945Z,101172.72
2019-05-05T16:17:04.505Z,101169.75
2019-05-05T16:19:53.707Z,101167.74
2019-05-05T16:22:29.238Z,101170.20
2019-05-05T16:25:14.102Z,101172.66
2019-05-05T16:27:44.626Z,101167.18
2019-05-05T16:30:17.708Z,101177.55
2019-05-05T16:32:47.667Z,101172.05
2019-05-05T16:35:17.903Z,101170.65
2019-05-05T16:37:47.863Z,101167.62
2019-05-05T16:40:18.034Z,101169.70
2019-05-05T16:42:47.921Z,101171.27
2019-05-05T16:45:18.093Z,101170.05
2019-05-05T16:47:48.096Z,101171.27
2019-05-05T16:50:18.597Z,101169.83
2019-05-05T16:52:54.816Z,101167.11
2019-05-05T16:55:53.862Z,101174.66
2019-05-05T16:58:24.126Z,101172.44
2019-05-05T17:00:55.026Z,101180.62
2019-05-05T17:03:25.457Z,101175.98
2019-05-05T17:05:58.102Z,101184.73
2019-05-05T17:08:27.275Z,101184.44
2019-05-05T17:10:57.752Z,101187.34
2019-05-05T17:13:43.941Z,101191.24
2019-05-05T17:16:35.003Z,101186.34
2019-05-05T17:19:16.318Z,101202.66
2019-05-05T17:22:04.087Z,101203.16
2019-05-05T17:24:34.443Z,101209.95
2019-05-05T17:27:04.524Z,101195.98
2019-05-05T17:29:34.585Z,101207.81
2019-05-05T17:32:05.485Z,101213.09
2019-05-05T17:34:35.513Z,101209.09
2019-05-05T17:37:05.829Z,101206.78
2019-05-05T17:39:39.679Z,101205.31
2019-05-05T17:42:37.044Z,101212.19
2019-05-05T17:45:14.275Z,101203.37
2019-05-05T17:48:01.837Z,101203.89
2019-05-05T17:50:49.973Z,101209.07
2019-05-05T17:53:45.433Z,101219.69
2019-05-05T17:56:15.560Z,101206.80
2019-05-05T17:58:46.394Z,101183.19
2019-05-05T18:01:16.329Z,101210.21
2019-05-05T18:03:46.153Z,101217.56
2019-05-05T18:06:26.473Z,101216.07
2019-05-05T18:09:00.354Z,101215.42
2019-05-05T18:11:48.368Z,101228.06
2019-05-05T18:14:24.423Z,101213.47
2019-05-05T18:16:54.382Z,101218.55
2019-05-05T18:19:24.791Z,101218.41
2019-05-05T18:21:55.061Z,101217.20
2019-05-05T18:24:24.888Z,101206.27
2019-05-05T18:26:55.002Z,101223.77
2019-05-05T18:29:24.949Z,101230.97
2019-05-05T18:31:54.933Z,101231.75
2019-05-05T18:34:24.790Z,101231.60
2019-05-05T18:36:54.632Z,101231.13
2019-05-05T18:39:24.894Z,101230.78
2019-05-05T18:42:06.635Z,101230.31
2019-05-05T18:44:44.389Z,101232.31
2019-05-05T18:47:18.998Z,101238.64
2019-05-05T18:49:49.042Z,101239.38
2019-05-05T18:52:19.614Z,101246.73
2019-05-05T18:54:49.641Z,101243.73
2019-05-05T18:57:19.536Z,101246.83
2019-05-05T18:59:49.608Z,101246.71
2019-05-05T19:02:41.005Z,101249.45
2019-05-05T19:05:20.820Z,101254.50
2019-05-05T19:07:56.106Z,101245.23
2019-05-05T19:10:27.207Z,101248.84
2019-05-05T19:12:57.066Z,101254.98
2019-05-05T19:15:27.323Z,101259.30
2019-05-05T19:17:57.286Z,101262.19
2019-05-05T19:20:35.883Z,101259.00
2019-05-05T19:23:06.170Z,101268.52
2019-05-05T19:25:36.065Z,101259.61
2019-05-05T19:28:05.893Z,101260.89
2019-05-05T19:30:36.339Z,101265.05
2019-05-05T19:33:06.504Z,101264.89
2019-05-05T19:35:44.044Z,101271.18
2019-05-05T19:38:08.210Z,101274.23
2019-05-05T19:40:38.146Z,101276.41
2019-05-05T19:43:07.996Z,101276.27
2019-05-05T19:45:37.938Z,101276.25
2019-05-05T19:48:07.856Z,101276.83
2019-05-05T19:50:47.090Z,101282.22
2019-05-05T19:53:25.180Z,101282.26
2019-05-05T19:55:56.550Z,101287.64
2019-05-05T19:58:26.695Z,101290.66
2019-05-05T20:01:01.324Z,101288.52
2019-05-05T20:03:34.712Z,101289.45
2019-05-05T20:06:04.787Z,101291.94
2019-05-05T20:08:41.127Z,101294.63
2019-05-05T20:11:06.702Z,101290.37
2019-05-05T20:13:36.549Z,101295.39
2019-05-05T20:16:34.136Z,101288.96
2019-05-05T20:19:04.307Z,101301.13
2019-05-05T20:21:34.700Z,101292.20
2019-05-05T20:24:04.549Z,101298.83
2019-05-05T20:26:34.749Z,101295.26
2019-05-05T20:29:13.967Z,101300.28
2019-05-05T20:31:38.875Z,101298.31
2019-05-05T20:34:21.701Z,101302.06
2019-05-05T20:37:08.661Z,101300.45
2019-05-05T20:39:40.088Z,101298.86
2019-05-05T20:42:10.705Z,101303.33
2019-05-05T20:44:43.587Z,101303.51
2019-05-05T20:47:12.971Z,101309.07
2019-05-05T20:49:44.403Z,101307.63
2019-05-05T20:52:14.535Z,101302.61
2019-05-05T20:54:44.393Z,101311.20
2019-05-05T20:57:14.454Z,101316.05
2019-05-05T20:59:44.629Z,101314.42
2019-05-05T21:02:15.202Z,101313.73
2019-05-05T21:04:45.247Z,101322.66
2019-05-05T21:07:15.236Z,101315.16
2019-05-05T21:09:45.166Z,101318.70
2019-05-05T21:12:15.298Z,101320.86
2019-05-05T21:14:45.234Z,101323.19
2019-05-05T21:17:15.080Z,101321.94
2019-05-05T21:19:45.257Z,101317.45
2019-05-05T21:22:33.939Z,101319.44
2019-05-05T21:25:05.014Z,101316.59
2019-05-05T21:27:35.337Z,101310.30
2019-05-05T21:30:05.701Z,101312.63
2019-05-05T21:32:35.779Z,101309.95
2019-05-05T21:35:05.901Z,101312.46
2019-05-05T21:37:35.899Z,101313.16
2019-05-05T21:40:06.592Z,101314.97
2019-05-05T21:42:36.504Z,101311.00
2019-05-05T21:45:06.812Z,101315.11
2019-05-05T21:47:37.134Z,101324.94
2019-05-05T21:50:09.344Z,101329.59
2019-05-05T21:52:54.712Z,101322.99
2019-05-05T21:55:48.597Z,101327.09
2019-05-05T21:58:23.275Z,101318.33
2019-05-05T22:01:04.554Z,101314.55
2019-05-05T22:03:38.453Z,101316.52
2019-05-05T22:06:08.432Z,101315.09
2019-05-05T22:08:38.681Z,101317.77
2019-05-05T22:11:08.598Z,101324.59
2019-05-05T22:13:40.553Z,101322.27
2019-05-05T22:16:10.192Z,101317.08
2019-05-05T22:18:40.108Z,101316.70
2019-05-05T22:21:19.315Z,101314.02
2019-05-05T22:24:07.504Z,101313.80
2019-05-05T22:26:37.383Z,101317.02
2019-05-05T22:29:07.608Z,101319.14
2019-05-05T22:31:37.516Z,101320.38
2019-05-05T22:34:07.555Z,101315.89
2019-05-05T22:36:37.488Z,101319.80
2019-05-05T22:39:09.198Z,101318.73
2019-05-05T22:41:39.230Z,101321.23
2019-05-05T22:44:09.539Z,101322.29
2019-05-05T22:46:39.512Z,101316.21
2019-05-05T22:49:09.550Z,101318.20
2019-05-05T22:51:39.896Z,101324.23
2019-05-05T22:54:09.939Z,101318.87
2019-05-05T22:56:40.814Z,101323.86
2019-05-05T22:59:10.944Z,101326.86
2019-05-05T23:01:40.927Z,101324.34
2019-05-05T23:04:19.652Z,101326.68
2019-05-05T23:06:54.313Z,101323.63
2019-05-05T23:09:23.357Z,101315.45
2019-05-05T23:11:54.559Z,101314.28
2019-05-05T23:14:28.559Z,101326.84
2019-05-05T23:17:10.835Z,101325.27
2019-05-05T23:19:45.657Z,101331.70
2019-05-05T23:22:24.056Z,101327.38
2019-05-05T23:25:00.064Z,101325.78
2019-05-05T23:27:49.086Z,101318.28
2019-05-05T23:30:23.871Z,101319.34
2019-05-05T23:32:54.821Z,101310.75
2019-05-05T23:35:25.951Z,101308.78
2019-05-05T23:37:55.908Z,101311.44
2019-05-05T23:40:27.460Z,101318.75
2019-05-05T23:42:57.308Z,101309.78
2019-05-05T23:45:27.101Z,101311.56
2019-05-05T23:47:57.011Z,101309.91
2019-05-05T23:50:26.998Z,101311.64
2019-05-05T23:52:57.181Z,101312.70
2019-05-05T23:55:27.050Z,101311.45
2019-05-05T23:57:57.091Z,101316.95
